Time;durP1;ratioP1;P1;durP2;ratioP2;P2;SDS_P1;SDS_P2;PMS_P1;PMS_P2;Temp;Humidity;BMP_temperature;BMP_pressure;BME280_temperature;BME280_humidity;BME280_pressure;Samples;Min_cycle;Max_cycle;Signal;HPM_P1;HPM_P2
2022/07/24 00:01:24;;;;;;;11.98;9.57;;;20.10;99.90;;;;;;5053310;28;20094;-77
2022/07/24 00:03:50;;;;;;;12.00;10.65;;;20.10;99.90;;;;;;5053010;28;20489;-77
2022/07/24 00:06:15;;;;;;;13.65;10.57;;;20.00;99.90;;;;;;5035303;28;20056;-77
2022/07/24 00:08:41;;;;;;;12.27;9.75;;;20.10;99.90;;;;;;5052042;28;20083;-78
2022/07/24 00:11:07;;;;;;;12.13;10.50;;;20.00;99.90;;;;;;5051455;28;20079;-78
2022/07/24 00:13:32;;;;;;;11.55;9.88;;;20.00;99.90;;;;;;5034412;28;20144;-78
2022/07/24 00:15:58;;;;;;;14.80;10.48;;;20.00;99.90;;;;;;5047561;28;20021;-78
2022/07/24 00:18:23;;;;;;;15.00;11.48;;;19.90;99.90;;;;;;5052823;28;20036;-78
2022/07/24 00:20:49;;;;;;;18.15;13.95;;;19.90;99.90;;;;;;5051432;28;20100;-78
2022/07/24 00:23:15;;;;;;;14.15;12.02;;;19.90;99.90;;;;;;5052751;28;20017;-77
2022/07/24 00:25:40;;;;;;;12.95;11.38;;;19.90;99.90;;;;;;5052563;28;20409;-77
2022/07/24 00:28:06;;;;;;;12.88;10.70;;;19.80;99.90;;;;;;5045244;28;20045;-78
2022/07/24 00:30:31;;;;;;;13.95;10.52;;;19.80;99.90;;;;;;5039349;28;20029;-77
2022/07/24 00:32:57;;;;;;;11.23;9.45;;;19.80;99.90;;;;;;5052475;28;20384;-77
2022/07/24 00:35:22;;;;;;;9.90;8.90;;;19.80;99.90;;;;;;5052548;28;20678;-77
2022/07/24 00:37:48;;;;;;;13.05;10.48;;;19.80;99.90;;;;;;5052453;28;20027;-77
2022/07/24 00:40:15;;;;;;;11.32;10.15;;;19.80;99.90;;;;;;5051502;28;20100;-77
2022/07/24 00:42:41;;;;;;;13.98;11.13;;;19.80;99.90;;;;;;5052518;28;20028;-77
2022/07/24 00:45:08;;;;;;;12.18;10.68;;;19.80;99.90;;;;;;5051716;28;20052;-78
2022/07/24 00:47:34;;;;;;;12.25;8.70;;;19.80;99.90;;;;;;5050815;28;20025;-78
2022/07/24 00:50:00;;;;;;;11.77;9.35;;;19.80;99.90;;;;;;5050946;28;20207;-78
2022/07/24 00:52:26;;;;;;;11.18;9.35;;;19.80;99.90;;;;;;5051831;28;20037;-78
2022/07/24 00:54:52;;;;;;;10.60;9.38;;;19.80;99.90;;;;;;5052073;28;20078;-78
2022/07/24 00:57:17;;;;;;;11.13;9.73;;;19.80;99.90;;;;;;5052391;28;20025;-78
2022/07/24 00:59:43;;;;;;;13.77;9.38;;;19.80;99.90;;;;;;5052146;28;20028;-78
2022/07/24 01:02:09;;;;;;;10.57;9.15;;;19.70;99.90;;;;;;5051111;28;20032;-78
2022/07/24 01:04:34;;;;;;;10.77;9.65;;;19.70;99.90;;;;;;5051670;28;20066;-77
2022/07/24 01:07:00;;;;;;;9.60;8.68;;;19.70;99.90;;;;;;5033508;28;20021;-78
2022/07/24 01:09:26;;;;;;;12.27;9.07;;;19.70;99.90;;;;;;5046873;28;20040;-77
2022/07/24 01:11:52;;;;;;;12.05;9.50;;;19.70;99.90;;;;;;5042530;28;20100;-77
2022/07/24 01:14:17;;;;;;;10.57;9.27;;;19.70;99.90;;;;;;5045492;28;20036;-77
2022/07/24 01:16:43;;;;;;;12.43;9.85;;;19.70;99.90;;;;;;5039909;28;20529;-77
2022/07/24 01:19:09;;;;;;;10.90;9.05;;;19.70;99.90;;;;;;5050844;28;20024;-77
2022/07/24 01:21:35;;;;;;;10.63;9.50;;;19.70;99.90;;;;;;5051670;28;20120;-78
2022/07/24 01:24:01;;;;;;;11.95;9.07;;;19.70;99.90;;;;;;5051462;28;20170;-78
2022/07/24 01:26:26;;;;;;;11.93;9.15;;;19.70;99.90;;;;;;5051650;28;20029;-77
2022/07/24 01:28:52;;;;;;;13.00;10.63;;;19.70;99.90;;;;;;5050810;28;20035;-77
2022/07/24 01:31:18;;;;;;;12.85;10.85;;;19.70;99.90;;;;;;5051150;28;20025;-77
2022/07/24 01:33:43;;;;;;;11.25;10.05;;;19.70;99.90;;;;;;5051308;28;20025;-78
2022/07/24 01:36:09;;;;;;;11.70;9.93;;;19.70;99.90;;;;;;5052526;28;20770;-78
2022/07/24 01:38:35;;;;;;;13.00;11.10;;;19.70;99.90;;;;;;5052033;28;20044;-78
2022/07/24 01:41:00;;;;;;;12.23;10.73;;;19.60;99.90;;;;;;5034659;28;20017;-78
2022/07/24 01:43:26;;;;;;;12.35;9.82;;;19.60;99.90;;;;;;5049239;28;20029;-77
2022/07/24 01:45:51;;;;;;;11.45;9.80;;;19.60;99.90;;;;;;5041689;28;20033;-78
2022/07/24 01:48:17;;;;;;;12.48;9.80;;;19.60;99.90;;;;;;5051045;28;20024;-77
2022/07/24 01:50:43;;;;;;;12.82;9.70;;;19.60;99.90;;;;;;5051676;28;20024;-77
2022/07/24 01:53:08;;;;;;;12.60;11.02;;;19.50;99.90;;;;;;5051847;28;20036;-77
2022/07/24 01:55:34;;;;;;;13.20;9.43;;;19.60;99.90;;;;;;5051763;28;20021;-77
2022/07/24 01:57:59;;;;;;;13.40;11.35;;;19.50;99.90;;;;;;5051065;28;20032;-77
2022/07/24 02:00:25;;;;;;;12.73;10.20;;;19.50;99.90;;;;;;5037458;28;20072;-77
2022/07/24 02:02:51;;;;;;;10.90;9.43;;;19.50;99.90;;;;;;5051576;28;20017;-78
2022/07/24 02:05:16;;;;;;;10.45;9.45;;;19.50;99.90;;;;;;5051056;28;20478;-78
2022/07/24 02:07:43;;;;;;;12.00;9.43;;;19.50;99.90;;;;;;5050922;28;20044;-77
2022/07/24 02:10:10;;;;;;;11.95;9.95;;;19.50;99.90;;;;;;5050719;28;20017;-77
2022/07/24 02:12:36;;;;;;;11.52;9.75;;;19.40;99.90;;;;;;5049993;28;20037;-77
2022/07/24 02:15:03;;;;;;;12.80;9.75;;;19.40;99.90;;;;;;5043551;28;20032;-77
2022/07/24 02:17:29;;;;;;;12.40;10.00;;;19.40;99.90;;;;;;5046503;28;20107;-77
2022/07/24 02:19:54;;;;;;;11.55;9.93;;;19.30;99.90;;;;;;5050807;28;20151;-77
2022/07/24 02:22:20;;;;;;;12.23;10.70;;;19.30;99.90;;;;;;5050776;28;20039;-77
2022/07/24 02:24:45;;;;;;;12.30;11.00;;;19.30;99.90;;;;;;5050618;28;20029;-77
2022/07/24 02:27:11;;;;;;;15.38;11.23;;;19.20;99.90;;;;;;5050882;28;20032;-77
2022/07/24 02:29:36;;;;;;;12.45;11.15;;;19.10;99.90;;;;;;5049332;28;20033;-77
2022/07/24 02:32:02;;;;;;;12.35;11.07;;;19.20;99.90;;;;;;5050613;28;20078;-78
2022/07/24 02:34:28;;;;;;;12.07;10.55;;;19.10;99.90;;;;;;5050366;28;20446;-78
2022/07/24 02:36:53;;;;;;;14.88;11.02;;;19.00;99.90;;;;;;5049622;28;20504;-77
2022/07/24 02:39:19;;;;;;;13.15;11.85;;;19.00;99.90;;;;;;5050129;28;20032;-77
2022/07/24 02:41:44;;;;;;;14.60;11.70;;;18.90;99.90;;;;;;5050523;28;20021;-78
2022/07/24 02:44:10;;;;;;;14.50;11.18;;;18.90;99.90;;;;;;5050046;28;20064;-77
2022/07/24 02:46:36;;;;;;;13.07;10.70;;;18.80;99.90;;;;;;5048969;28;20094;-78
2022/07/24 02:49:02;;;;;;;12.52;11.23;;;18.80;99.90;;;;;;5050240;28;20037;-78
2022/07/24 02:51:28;;;;;;;13.32;11.27;;;18.70;99.90;;;;;;5050159;28;20047;-77
2022/07/24 02:53:53;;;;;;;12.90;11.23;;;18.70;99.90;;;;;;5050164;28;20061;-77
2022/07/24 02:56:19;;;;;;;14.13;11.50;;;18.70;99.90;;;;;;5050442;28;20021;-78
2022/07/24 02:58:44;;;;;;;12.43;10.80;;;18.70;99.90;;;;;;5049621;28;20717;-78
2022/07/24 03:01:10;;;;;;;14.98;11.85;;;18.60;99.90;;;;;;5050029;28;20021;-77
2022/07/24 03:03:36;;;;;;;14.82;12.02;;;18.60;99.90;;;;;;5050029;28;20025;-78
2022/07/24 03:06:01;;;;;;;16.80;11.25;;;18.60;99.90;;;;;;5050631;28;20469;-77
2022/07/24 03:08:27;;;;;;;15.13;11.95;;;18.50;99.90;;;;;;5050149;28;20086;-78
2022/07/24 03:10:52;;;;;;;12.52;11.27;;;18.50;99.90;;;;;;5048168;28;20077;-78
2022/07/24 03:13:18;;;;;;;15.32;12.25;;;18.50;99.90;;;;;;5049209;28;20084;-78
2022/07/24 03:15:43;;;;;;;14.18;11.30;;;18.40;99.90;;;;;;5039092;28;20017;-78
2022/07/24 03:18:09;;;;;;;12.80;11.40;;;18.40;99.90;;;;;;5049317;28;20087;-76
2022/07/24 03:20:35;;;;;;;15.40;12.15;;;18.40;99.90;;;;;;5049941;28;20091;-78
2022/07/24 03:23:00;;;;;;;16.45;12.40;;;18.40;99.90;;;;;;5049917;28;20096;-78
2022/07/24 03:25:26;;;;;;;14.95;12.30;;;18.30;99.90;;;;;;5050069;28;20112;-78
2022/07/24 03:27:52;;;;;;;14.13;12.27;;;18.30;99.90;;;;;;5048560;28;20460;-78
2022/07/24 03:30:18;;;;;;;14.52;13.05;;;18.30;99.90;;;;;;5053304;28;20025;-76
2022/07/24 03:32:44;;;;;;;14.73;12.57;;;18.30;99.90;;;;;;5053540;28;20029;-78
2022/07/24 03:35:10;;;;;;;13.50;12.10;;;18.30;99.90;;;;;;5053641;28;20024;-78
2022/07/24 03:37:36;;;;;;;16.50;12.18;;;18.20;99.90;;;;;;5052887;28;20032;-76
2022/07/24 03:40:02;;;;;;;13.43;11.93;;;18.20;99.90;;;;;;5053494;28;20493;-76
2022/07/24 03:42:28;;;;;;;12.68;11.38;;;18.20;99.90;;;;;;5053557;28;20040;-77
2022/07/24 03:44:53;;;;;;;14.15;11.80;;;18.10;99.90;;;;;;5053094;28;20040;-77
2022/07/24 03:47:19;;;;;;;24.73;12.60;;;18.20;99.90;;;;;;5034607;28;20576;-77
2022/07/24 03:49:45;;;;;;;14.48;11.70;;;18.10;99.90;;;;;;5053097;28;20021;-77
2022/07/24 03:52:10;;;;;;;13.35;11.98;;;18.10;99.90;;;;;;5053344;28;20025;-77
2022/07/24 03:54:38;;;;;;;16.08;12.93;;;18.00;99.90;;;;;;5053056;28;20437;-77
2022/07/24 03:57:06;;;;;;;16.95;13.55;;;18.00;99.90;;;;;;5053136;28;20070;-77
2022/07/24 03:59:31;;;;;;;15.80;13.18;;;17.90;99.90;;;;;;5052326;28;20036;-77
2022/07/24 04:01:57;;;;;;;15.48;13.70;;;18.00;99.90;;;;;;5053161;28;20021;-77
2022/07/24 04:04:22;;;;;;;16.42;13.93;;;17.90;99.90;;;;;;5053209;28;20053;-76
2022/07/24 04:06:48;;;;;;;15.15;13.52;;;17.90;99.90;;;;;;5052536;28;20029;-76
2022/07/24 04:09:13;;;;;;;17.77;14.20;;;17.90;99.90;;;;;;5053011;28;20389;-76
2022/07/24 04:11:39;;;;;;;15.90;13.38;;;17.90;99.90;;;;;;5052261;28;20476;-76
2022/07/24 04:14:05;;;;;;;14.63;12.82;;;17.80;99.90;;;;;;5050820;28;20654;-76
2022/07/24 04:16:31;;;;;;;13.85;12.38;;;17.80;99.90;;;;;;5042165;28;20029;-76
2022/07/24 04:18:56;;;;;;;15.52;13.30;;;17.80;99.90;;;;;;5052564;28;20147;-76
2022/07/24 04:21:22;;;;;;;14.35;12.07;;;17.80;99.90;;;;;;5052881;28;20029;-77
2022/07/24 04:23:48;;;;;;;15.68;12.90;;;17.90;99.90;;;;;;5052276;28;20146;-77
2022/07/24 04:26:13;;;;;;;15.70;14.02;;;17.80;99.90;;;;;;5052668;28;20029;-77
2022/07/24 04:28:41;;;;;;;17.95;12.95;;;17.80;99.90;;;;;;5052748;28;20028;-77
2022/07/24 04:31:07;;;;;;;14.88;12.70;;;17.90;99.90;;;;;;5034638;28;20039;-77
2022/07/24 04:33:33;;;;;;;14.38;12.88;;;17.90;99.90;;;;;;5052478;28;20037;-76
2022/07/24 04:35:59;;;;;;;14.70;13.20;;;17.90;99.90;;;;;;5034076;28;20025;-78
2022/07/24 04:38:24;;;;;;;16.00;14.20;;;18.00;99.90;;;;;;5052852;28;20492;-78
2022/07/24 04:40:50;;;;;;;15.52;13.80;;;17.90;99.90;;;;;;5052520;28;20060;-79
2022/07/24 04:43:15;;;;;;;19.23;14.50;;;18.00;99.90;;;;;;5051722;28;20031;-78
2022/07/24 04:45:41;;;;;;;15.70;14.10;;;18.00;99.90;;;;;;5052292;28;20037;-78
2022/07/24 04:48:06;;;;;;;17.35;15.57;;;18.10;99.90;;;;;;5052345;28;20096;-79
2022/07/24 04:50:33;;;;;;;15.85;14.25;;;18.10;99.90;;;;;;5052599;28;20017;-79
2022/07/24 04:52:58;;;;;;;15.98;14.38;;;18.10;99.90;;;;;;5051753;28;20430;-79
2022/07/24 04:55:24;;;;;;;15.55;13.95;;;18.10;99.90;;;;;;5051653;28;20108;-79
2022/07/24 04:57:50;;;;;;;18.40;15.80;;;18.20;99.90;;;;;;5052412;28;20070;-79
2022/07/24 05:00:15;;;;;;;17.58;15.70;;;18.20;99.90;;;;;;5050996;28;20031;-79
2022/07/24 05:02:41;;;;;;;17.83;15.48;;;18.20;99.90;;;;;;5039335;28;20466;-79
2022/07/24 05:05:07;;;;;;;18.20;16.27;;;18.30;99.90;;;;;;5051625;28;20469;-79
2022/07/24 05:07:33;;;;;;;21.27;16.63;;;18.40;99.90;;;;;;5033480;28;20037;-79
2022/07/24 05:09:59;;;;;;;20.13;16.88;;;18.40;99.90;;;;;;5043301;28;20064;-84
2022/07/24 05:12:26;;;;;;;17.90;15.70;;;18.50;99.90;;;;;;5030612;28;20040;-73
2022/07/24 05:14:51;;;;;;;18.20;15.60;;;18.50;99.90;;;;;;5041053;28;20037;-74
2022/07/24 05:17:17;;;;;;;16.35;14.65;;;18.60;99.90;;;;;;5044039;28;20029;-72
2022/07/24 05:19:43;;;;;;;16.50;14.90;;;18.60;99.90;;;;;;5040930;28;20040;-72
2022/07/24 05:22:08;;;;;;;22.45;15.57;;;18.70;99.90;;;;;;5051950;28;20106;-72
2022/07/24 05:24:34;;;;;;;16.20;14.50;;;18.80;99.90;;;;;;5050304;28;20116;-75
2022/07/24 05:26:59;;;;;;;17.40;14.73;;;18.80;99.90;;;;;;5050945;28;20056;-73
2022/07/24 05:29:25;;;;;;;17.63;14.95;;;18.90;99.90;;;;;;5051393;28;20420;-73
2022/07/24 05:31:53;;;;;;;18.98;14.65;;;18.90;99.90;;;;;;5051413;28;20036;-73
2022/07/24 05:34:22;;;;;;;16.00;14.40;;;19.00;99.90;;;;;;5049999;28;20032;-73
2022/07/24 05:36:48;;;;;;;20.35;14.98;;;19.10;99.90;;;;;;5051108;28;20423;-73
2022/07/24 05:39:13;;;;;;;17.77;15.70;;;19.20;99.90;;;;;;5050961;28;20029;-73
2022/07/24 05:41:39;;;;;;;16.85;15.05;;;19.30;99.90;;;;;;5051255;28;20055;-73
2022/07/24 05:44:05;;;;;;;18.13;15.65;;;19.30;99.90;;;;;;5048964;28;20074;-73
2022/07/24 05:46:30;;;;;;;18.90;14.68;;;19.50;99.90;;;;;;5051176;28;20029;-73
2022/07/24 05:48:56;;;;;;;19.23;15.05;;;19.50;99.90;;;;;;5050807;28;20029;-73
2022/07/24 05:51:21;;;;;;;19.55;15.48;;;19.60;99.90;;;;;;5034991;28;20041;-73
2022/07/24 05:53:47;;;;;;;16.38;14.68;;;19.70;99.90;;;;;;5034304;28;20103;-73
2022/07/24 05:56:13;;;;;;;17.88;14.52;;;19.80;99.90;;;;;;5034257;28;20036;-73
2022/07/24 05:58:38;;;;;;;15.82;14.23;;;19.80;99.90;;;;;;5033738;28;20040;-74
2022/07/24 06:01:04;;;;;;;18.08;14.05;;;19.90;99.90;;;;;;5033096;28;20033;-73
2022/07/24 06:03:29;;;;;;;18.50;14.73;;;19.90;99.90;;;;;;5035542;28;20025;-72
2022/07/24 06:05:55;;;;;;;16.40;12.95;;;20.00;99.90;;;;;;5034846;28;20033;-72
2022/07/24 06:08:20;;;;;;;15.98;14.25;;;20.10;99.90;;;;;;5037839;28;20028;-73
2022/07/24 06:10:58;;;;;;;15.82;14.10;;;20.20;99.90;;;;;;5035465;28;20030;-73
2022/07/24 06:13:27;;;;;;;14.50;12.98;;;20.30;99.90;;;;;;5037285;28;20061;-74
2022/07/24 06:15:52;;;;;;;18.25;13.50;;;20.40;99.90;;;;;;5036280;28;20026;-73
2022/07/24 06:18:22;;;;;;;16.75;14.27;;;20.50;99.90;;;;;;5045719;28;20036;-73
2022/07/24 06:20:49;;;;;;;16.90;12.85;;;20.70;99.90;;;;;;5040346;28;20015;-73
2022/07/24 06:23:15;;;;;;;15.50;12.77;;;20.90;99.90;;;;;;5050168;28;20096;-73
2022/07/24 06:25:41;;;;;;;13.85;11.20;;;20.90;99.90;;;;;;5051252;28;20087;-73
2022/07/24 06:28:08;;;;;;;16.67;12.98;;;21.10;99.90;;;;;;5030442;28;20028;-75
2022/07/24 06:30:35;;;;;;;14.15;12.38;;;21.20;99.90;;;;;;5050604;28;20036;-72
2022/07/24 06:33:01;;;;;;;14.82;13.10;;;21.30;99.90;;;;;;5045288;28;20412;-73
2022/07/24 06:35:27;;;;;;;16.55;12.55;;;21.40;99.90;;;;;;5042634;28;20034;-74
2022/07/24 06:37:53;;;;;;;20.23;13.40;;;21.50;99.90;;;;;;5031947;28;20458;-75
2022/07/24 06:40:19;;;;;;;13.57;11.38;;;21.60;99.90;;;;;;5047312;28;20076;-75
2022/07/24 06:42:46;;;;;;;12.93;10.77;;;21.80;99.90;;;;;;5051447;28;20403;-75
2022/07/24 06:45:13;;;;;;;14.65;10.43;;;22.00;99.90;;;;;;5049710;28;20913;-81
2022/07/24 06:47:39;;;;;;;13.50;11.05;;;22.10;99.90;;;;;;5049948;28;20469;-70
2022/07/24 06:50:05;;;;;;;11.27;10.10;;;22.30;99.90;;;;;;5053592;28;20029;-70
2022/07/24 06:52:31;;;;;;;10.63;9.48;;;22.40;99.90;;;;;;5053756;28;20112;-71
2022/07/24 06:54:57;;;;;;;13.32;11.02;;;22.50;99.90;;;;;;5035455;28;20615;-70
2022/07/24 06:57:23;;;;;;;14.38;9.75;;;22.60;99.90;;;;;;5053615;28;20049;-70
2022/07/24 06:59:49;;;;;;;13.30;9.75;;;22.70;99.90;;;;;;5053140;28;20025;-70
2022/07/24 07:02:15;;;;;;;13.20;9.63;;;22.80;99.90;;;;;;5053105;28;20028;-70
2022/07/24 07:04:41;;;;;;;10.35;9.35;;;22.80;99.90;;;;;;5052638;28;20013;-75
2022/07/24 07:07:06;;;;;;;12.50;10.20;;;22.90;99.90;;;;;;5053014;28;20060;-77
2022/07/24 07:09:35;;;;;;;13.45;9.02;;;22.90;99.90;;;;;;5053867;28;20048;-77
2022/07/24 07:12:03;;;;;;;13.38;10.10;;;23.00;99.90;;;;;;5055930;28;20036;-71
2022/07/24 07:14:28;;;;;;;16.13;9.60;;;23.10;99.90;;;;;;5056730;28;20428;-71
2022/07/24 07:16:54;;;;;;;11.80;9.88;;;23.20;99.90;;;;;;5057174;28;20396;-73
2022/07/24 07:19:23;;;;;;;14.30;10.73;;;23.30;99.90;;;;;;5055097;28;20047;-77
2022/07/24 07:21:50;;;;;;;11.77;9.40;;;23.30;99.90;;;;;;5042842;28;20048;-71
2022/07/24 07:24:27;;;;;;;14.18;10.55;;;23.40;99.90;;;;;;5037359;28;20466;-72
2022/07/24 07:26:53;;;;;;;12.13;8.95;;;23.40;99.90;;;;;;5004355;28;20031;-74
2022/07/24 07:29:18;;;;;;;14.45;10.32;;;23.50;99.90;;;;;;5045913;28;20033;-74
2022/07/24 07:31:44;;;;;;;12.27;9.60;;;23.50;99.90;;;;;;5048961;28;20071;-74
2022/07/24 07:34:09;;;;;;;12.38;9.45;;;23.50;99.90;;;;;;5053450;28;20040;-73
2022/07/24 07:36:35;;;;;;;12.52;9.88;;;23.60;99.90;;;;;;5052825;28;20025;-73
2022/07/24 07:39:01;;;;;;;15.20;10.27;;;23.70;99.90;;;;;;5052882;28;20017;-73
2022/07/24 07:41:27;;;;;;;16.75;9.73;;;23.80;99.90;;;;;;5050773;28;20055;-75
2022/07/24 07:43:53;;;;;;;14.07;10.38;;;23.80;99.90;;;;;;5043408;28;20053;-76
2022/07/24 07:46:19;;;;;;;13.85;9.27;;;23.80;99.90;;;;;;5052035;28;20036;-76
2022/07/24 07:48:44;;;;;;;12.68;10.30;;;23.80;99.90;;;;;;5050714;28;20478;-74
2022/07/24 07:51:10;;;;;;;13.68;9.80;;;23.90;99.90;;;;;;5050630;28;20029;-74
2022/07/24 07:53:36;;;;;;;12.73;9.57;;;24.00;99.90;;;;;;5039865;28;20082;-75
2022/07/24 07:56:02;;;;;;;12.93;9.90;;;24.10;99.90;;;;;;5050613;28;20032;-72
2022/07/24 07:58:27;;;;;;;10.13;9.07;;;24.10;99.90;;;;;;5056308;28;20025;-72
2022/07/24 08:00:53;;;;;;;16.88;10.45;;;24.10;99.90;;;;;;5056299;28;20216;-72
2022/07/24 08:03:19;;;;;;;11.68;9.15;;;24.10;99.90;;;;;;5056568;28;20458;-71
2022/07/24 08:05:45;;;;;;;11.57;10.00;;;24.20;99.90;;;;;;5056531;28;20021;-72
2022/07/24 08:08:11;;;;;;;10.95;9.00;;;24.20;99.90;;;;;;5056801;28;20025;-72
2022/07/24 08:10:36;;;;;;;13.70;9.25;;;24.20;99.90;;;;;;5056125;28;20028;-72
2022/07/24 08:13:03;;;;;;;16.27;9.15;;;24.30;99.90;;;;;;5056204;28;20052;-70
2022/07/24 08:15:29;;;;;;;12.60;9.45;;;24.40;99.90;;;;;;5055465;28;20029;-70
2022/07/24 08:17:56;;;;;;;13.30;9.00;;;24.50;99.90;;;;;;5056415;28;20446;-71
2022/07/24 08:20:23;;;;;;;13.35;8.93;;;24.60;99.90;;;;;;5055819;28;20039;-72
2022/07/24 08:22:49;;;;;;;9.73;8.10;;;24.60;99.90;;;;;;5055809;28;20103;-70
2022/07/24 08:25:16;;;;;;;10.02;8.27;;;24.70;99.90;;;;;;5054902;28;20373;-81
2022/07/24 08:27:41;;;;;;;10.52;8.30;;;24.70;99.90;;;;;;5035903;28;20142;-82
2022/07/24 08:30:08;;;;;;;15.48;8.23;;;24.80;99.90;;;;;;5045405;28;20473;-80
2022/07/24 08:32:34;;;;;;;9.25;8.07;;;24.90;99.90;;;;;;5054620;28;20473;-80
2022/07/24 08:34:59;;;;;;;11.13;7.55;;;25.00;99.90;;;;;;5053824;28;20021;-81
2022/07/24 08:37:25;;;;;;;9.77;8.77;;;25.10;99.90;;;;;;5053927;28;20423;-81
2022/07/24 08:39:50;;;;;;;10.32;7.68;;;25.20;99.90;;;;;;5052435;28;20017;-81
2022/07/24 08:42:16;;;;;;;9.70;8.70;;;25.20;99.90;;;;;;5053643;28;20025;-80
2022/07/24 08:44:42;;;;;;;12.18;7.95;;;25.30;99.90;;;;;;5048769;28;20053;-81
2022/07/24 08:47:08;;;;;;;13.77;8.30;;;25.30;99.90;;;;;;5053435;28;20025;-80
2022/07/24 08:49:36;;;;;;;11.75;8.20;;;25.40;99.90;;;;;;5053533;28;20102;-81
2022/07/24 08:52:04;;;;;;;8.95;7.88;;;25.50;99.90;;;;;;5048742;28;20022;-81
2022/07/24 08:54:30;;;;;;;12.77;8.00;;;25.50;99.90;;;;;;5053056;28;20021;-81
2022/07/24 08:56:56;;;;;;;11.35;8.50;;;25.50;99.90;;;;;;5053538;28;20025;-81
2022/07/24 08:59:23;;;;;;;10.98;9.10;;;25.70;99.90;;;;;;5053451;28;20470;-81
2022/07/24 09:01:50;;;;;;;9.93;8.25;;;25.70;99.90;;;;;;5035416;28;20079;-81
2022/07/24 09:04:35;;;;;;;9.32;7.43;;;25.70;99.90;;;;;;5053063;28;20032;-81
2022/07/24 09:07:07;;;;;;;9.40;8.35;;;25.80;99.90;;;;;;5053210;28;20029;-81
2022/07/24 09:09:32;;;;;;;8.82;7.60;;;25.90;99.90;;;;;;5053020;28;20029;-81
2022/07/24 09:12:03;;;;;;;10.40;8.30;;;25.90;99.90;;;;;;5053196;28;20040;-81
2022/07/24 09:14:33;;;;;;;10.50;7.63;;;26.00;99.90;;;;;;5034359;28;20021;-81
2022/07/24 09:17:10;;;;;;;11.68;7.53;;;26.10;99.90;;;;;;5053032;28;20066;-80
2022/07/24 09:19:59;;;;;;;8.25;7.35;;;26.20;99.90;;;;;;5039449;28;20013;-80
2022/07/24 09:22:32;;;;;;;7.93;7.07;;;26.30;99.90;;;;;;5052900;28;20044;-80
2022/07/24 09:25:18;;;;;;;7.60;6.43;;;26.40;99.90;;;;;;5053312;28;20021;-81
2022/07/24 09:27:59;;;;;;;10.45;7.97;;;26.40;99.90;;;;;;5038928;28;20021;-81
2022/07/24 09:30:36;;;;;;;8.77;7.15;;;26.50;99.90;;;;;;5054146;28;20112;-80
2022/07/24 09:33:04;;;;;;;7.53;6.80;;;26.60;99.90;;;;;;5059779;28;20021;-80
2022/07/24 09:35:37;;;;;;;10.05;6.75;;;26.90;99.90;;;;;;5048366;28;20029;-80
2022/07/24 09:38:04;;;;;;;8.50;6.80;;;27.10;99.90;;;;;;5042446;28;20025;-79
2022/07/24 09:40:38;;;;;;;9.77;7.40;;;27.30;99.90;;;;;;5037692;28;20381;-79
2022/07/24 09:43:15;;;;;;;8.25;7.20;;;27.50;99.90;;;;;;5020955;28;20032;-80
2022/07/24 09:45:52;;;;;;;9.07;7.55;;;27.70;99.90;;;;;;5024700;28;20049;-80
2022/07/24 09:48:22;;;;;;;8.55;7.55;;;27.80;99.90;;;;;;5048981;28;20036;-78
2022/07/24 09:50:55;;;;;;;9.43;7.18;;;28.10;99.90;;;;;;5032972;28;20025;-79
2022/07/24 09:53:23;;;;;;;8.68;7.10;;;28.20;99.90;;;;;;5049628;28;20051;-79
2022/07/24 09:56:00;;;;;;;9.82;7.47;;;28.30;99.90;;;;;;5037409;28;20025;-79
2022/07/24 09:58:27;;;;;;;10.85;7.57;;;28.50;99.90;;;;;;5049680;28;20066;-79
2022/07/24 10:00:55;;;;;;;10.35;7.10;;;28.60;99.90;;;;;;5046672;28;20090;-79
2022/07/24 10:03:25;;;;;;;8.10;7.30;;;28.80;99.90;;;;;;5031656;28;20123;-78
2022/07/24 10:05:55;;;;;;;10.95;7.43;;;28.80;99.90;;;;;;5029404;28;20534;-78
2022/07/24 10:08:21;;;;;;;9.32;7.63;;;28.80;99.90;;;;;;5048613;28;20379;-78
2022/07/24 10:10:48;;;;;;;8.55;7.65;;;28.90;99.90;;;;;;5050251;28;20040;-78
2022/07/24 10:13:14;;;;;;;10.10;7.32;;;29.10;99.90;;;;;;5031683;28;20524;-79
2022/07/24 10:16:07;;;;;;;9.90;6.70;;;29.20;99.90;;;;;;5050311;28;20219;-79
2022/07/24 10:18:47;;;;;;;7.72;6.93;;;29.30;99.90;;;;;;5039669;28;20374;-79
2022/07/24 10:21:19;;;;;;;7.85;6.25;;;29.60;99.90;;;;;;5048357;28;20493;-80
2022/07/24 10:23:54;;;;;;;10.02;7.32;;;30.00;99.90;;;;;;5050278;28;20420;-80
2022/07/24 10:26:43;;;;;;;9.18;7.10;;;30.20;99.90;;;;;;5045457;28;20032;-79
2022/07/24 10:29:13;;;;;;;8.98;6.95;;;30.10;99.90;;;;;;5045038;28;20436;-80
2022/07/24 10:31:46;;;;;;;8.73;6.85;;;30.00;99.90;;;;;;5031912;28;20135;-80
2022/07/24 10:34:42;;;;;;;8.25;7.13;;;30.20;99.90;;;;;;5049266;28;20021;-80
2022/07/24 10:37:30;;;;;;;8.07;6.68;;;30.60;99.90;;;;;;5049707;28;20064;-80
2022/07/24 10:40:28;;;;;;;7.72;6.45;;;30.70;99.90;;;;;;5032379;28;20021;-79
2022/07/24 10:43:06;;;;;;;7.32;6.20;;;30.70;99.90;;;;;;4997757;28;20076;-80
2022/07/24 10:45:43;;;;;;;8.10;6.55;;;30.90;99.90;;;;;;5049164;28;20474;-79
2022/07/24 10:48:24;;;;;;;9.93;6.05;;;30.80;99.90;;;;;;5032084;28;20044;-79
2022/07/24 10:51:13;;;;;;;7.25;6.05;;;30.90;99.90;;;;;;5050403;28;20056;-79
2022/07/24 10:53:39;;;;;;;8.98;6.18;;;31.00;99.90;;;;;;5049845;28;20025;-79
2022/07/24 10:56:23;;;;;;;8.10;6.10;;;31.20;99.90;;;;;;5030189;28;20036;-79
2022/07/24 10:59:11;;;;;;;8.82;6.05;;;31.30;99.90;;;;;;5047611;28;20116;-79
2022/07/24 11:01:38;;;;;;;8.20;6.20;;;31.20;99.90;;;;;;5036054;28;20034;-81
2022/07/24 11:04:29;;;;;;;7.03;5.75;;;31.20;99.90;;;;;;5050462;28;20489;-80
2022/07/24 11:06:59;;;;;;;7.38;6.10;;;31.30;99.90;;;;;;5043864;28;20090;-81
2022/07/24 11:09:26;;;;;;;8.93;5.88;;;31.30;99.60;;;;;;5050340;28;20009;-80
2022/07/24 11:11:52;;;;;;;9.50;6.63;;;31.40;99.20;;;;;;5049815;28;20486;-79
2022/07/24 11:14:36;;;;;;;8.13;6.20;;;31.50;99.90;;;;;;5048686;28;20492;-80
2022/07/24 11:17:20;;;;;;;;;;;31.30;98.80;;;;;;5051363;28;20029;-79
2022/07/24 11:19:55;;;;;;;8.00;6.28;;;31.30;99.10;;;;;;5051208;28;19904;-79
2022/07/24 11:22:41;;;;;;;8.98;6.30;;;31.30;99.90;;;;;;5049895;28;20052;-79
2022/07/24 11:25:13;;;;;;;7.05;6.15;;;31.10;98.40;;;;;;5039313;28;20020;-79
2022/07/24 11:27:47;;;;;;;7.95;6.07;;;31.20;97.70;;;;;;5051235;28;20090;-79
2022/07/24 11:30:15;;;;;;;6.28;5.45;;;31.30;99.20;;;;;;5033225;28;20511;-79
2022/07/24 11:32:41;;;;;;;7.75;5.63;;;31.60;97.50;;;;;;5033278;28;20029;-80
2022/07/24 11:35:08;;;;;;;8.25;5.72;;;31.80;95.30;;;;;;5051205;28;20099;-80
2022/07/24 11:37:36;;;;;;;7.20;5.75;;;31.80;94.50;;;;;;5051162;28;20013;-79
2022/07/24 11:40:04;;;;;;;10.77;6.25;;;31.80;94.10;;;;;;5048290;28;20075;-80
2022/07/24 11:42:30;;;;;;;6.25;5.50;;;32.00;93.90;;;;;;5051282;28;20339;-79
2022/07/24 11:44:55;;;;;;;9.88;6.53;;;32.20;93.90;;;;;;5050367;28;20052;-80
2022/07/24 11:47:24;;;;;;;8.93;5.75;;;32.20;94.10;;;;;;5033088;28;20025;-80
2022/07/24 11:50:02;;;;;;;7.38;6.28;;;32.10;93.70;;;;;;5051937;28;20366;-80
2022/07/24 11:52:32;;;;;;;7.63;5.97;;;32.20;92.80;;;;;;5043035;28;20025;-80
2022/07/24 11:55:02;;;;;;;7.18;5.90;;;32.20;92.90;;;;;;5049588;28;20030;-80
2022/07/24 11:57:34;;;;;;;9.32;6.03;;;32.00;94.10;;;;;;5050605;28;20100;-79
2022/07/24 12:00:00;;;;;;;7.22;5.93;;;32.10;93.80;;;;;;5045376;28;20021;-80
2022/07/24 12:02:26;;;;;;;7.47;5.85;;;32.40;92.00;;;;;;5051822;28;20036;-81
2022/07/24 12:04:52;;;;;;;11.55;6.72;;;32.70;92.50;;;;;;5045973;28;20354;-80
2022/07/24 12:07:18;;;;;;;9.55;5.65;;;32.80;91.90;;;;;;5050857;28;20138;-80
2022/07/24 12:09:56;;;;;;;7.57;5.85;;;32.90;91.70;;;;;;5029362;28;20401;-80
2022/07/24 12:12:25;;;;;;;9.55;5.55;;;32.90;90.90;;;;;;5050884;28;20037;-81
2022/07/24 12:14:53;;;;;;;9.63;5.93;;;33.10;92.30;;;;;;5046030;28;20069;-80
2022/07/24 12:17:19;;;;;;;6.35;5.70;;;33.40;91.10;;;;;;5054601;28;20045;-70
2022/07/24 12:19:53;;;;;;;8.02;5.97;;;33.70;88.50;;;;;;5056256;28;20067;-73
2022/07/24 12:22:21;;;;;;;6.50;5.80;;;33.80;86.80;;;;;;5055794;28;20048;-72
2022/07/24 12:24:46;;;;;;;6.65;5.68;;;33.90;87.20;;;;;;5055655;28;20150;-74
2022/07/24 12:27:32;;;;;;;5.95;5.35;;;33.90;85.30;;;;;;5055128;28;20120;-70
2022/07/24 12:29:57;;;;;;;7.70;5.50;;;34.00;84.50;;;;;;5035602;28;20354;-68
2022/07/24 12:32:26;;;;;;;9.63;5.97;;;34.00;85.50;;;;;;5035861;28;20025;-75
2022/07/24 12:34:52;;;;;;;7.63;5.60;;;34.10;83.20;;;;;;5052266;28;20028;-79
2022/07/24 12:37:20;;;;;;;7.75;6.45;;;34.20;84.50;;;;;;5034049;28;20836;-78
2022/07/24 12:39:47;;;;;;;7.45;5.90;;;34.30;82.60;;;;;;5052828;28;20096;-78